sensor_id;sensor_type;location;lat;lon;timestamp;pressure;altitude;pressure_sealevel;temperature;humidity
17764;BME280;22245;52.832;13.816;2023-01-16T00:00:37;99778.94;;;6.72;61.13
17764;BME280;22245;52.832;13.816;2023-01-16T00:04:00;99787.00;;;6.70;61.15
17764;BME280;22245;52.832;13.816;2023-01-16T00:07:22;99782.66;;;6.69;61.61
17764;BME280;22245;52.832;13.816;2023-01-16T00:10:44;99786.44;;;6.66;61.43
17764;BME280;22245;52.832;13.816;2023-01-16T00:14:06;99779.06;;;6.70;61.59
17764;BME280;22245;52.832;13.816;2023-01-16T00:17:27;99780.44;;;6.64;61.90
17764;BME280;22245;52.832;13.816;2023-01-16T00:20:50;99777.44;;;6.58;62.13
17764;BME280;22245;52.832;13.816;2023-01-16T00:24:12;99782.59;;;6.59;61.97
17764;BME280;22245;52.832;13.816;2023-01-16T00:27:33;99777.44;;;6.58;62.35
17764;BME280;22245;52.832;13.816;2023-01-16T00:30:55;99774.53;;;6.61;62.49
17764;BME280;22245;52.832;13.816;2023-01-16T00:34:17;99782.22;;;6.64;62.35
17764;BME280;22245;52.832;13.816;2023-01-16T00:37:40;99773.31;;;6.65;62.65
17764;BME280;22245;52.832;13.816;2023-01-16T00:41:02;99773.31;;;6.65;62.42
17764;BME280;22245;52.832;13.816;2023-01-16T00:44:24;99779.47;;;6.65;62.44
17764;BME280;22245;52.832;13.816;2023-01-16T00:47:45;99779.56;;;6.64;62.62
17764;BME280;22245;52.832;13.816;2023-01-16T00:51:07;99777.78;;;6.64;62.50
17764;BME280;22245;52.832;13.816;2023-01-16T00:54:30;99766.34;;;6.64;62.85
17764;BME280;22245;52.832;13.816;2023-01-16T00:57:52;99762.72;;;6.65;62.55
17764;BME280;22245;52.832;13.816;2023-01-16T01:01:13;99770.66;;;6.65;63.00
17764;BME280;22245;52.832;13.816;2023-01-16T01:04:35;99777.53;;;6.68;62.71
17764;BME280;22245;52.832;13.816;2023-01-16T01:07:57;99778.22;;;6.70;62.76
17764;BME280;22245;52.832;13.816;2023-01-16T01:11:21;99787.00;;;6.70;62.53
17764;BME280;22245;52.832;13.816;2023-01-16T01:14:43;99790.75;;;6.68;62.57
17764;BME280;22245;52.832;13.816;2023-01-16T01:18:04;99788.47;;;6.63;63.05
17764;BME280;22245;52.832;13.816;2023-01-16T01:21:29;99784.16;;;6.62;62.74
17764;BME280;22245;52.832;13.816;2023-01-16T01:24:51;99791.56;;;6.68;62.72
17764;BME280;22245;52.832;13.816;2023-01-16T01:28:14;99796.59;;;6.71;63.08
17764;BME280;22245;52.832;13.816;2023-01-16T01:31:36;99792.28;;;6.70;62.86
17764;BME280;22245;52.832;13.816;2023-01-16T01:34:57;99784.22;;;6.72;62.74
17764;BME280;22245;52.832;13.816;2023-01-16T01:38:21;99793.69;;;6.74;63.07
17764;BME280;22245;52.832;13.816;2023-01-16T01:41:42;99790.94;;;6.76;62.72
17764;BME280;22245;52.832;13.816;2023-01-16T01:45:11;99783.97;;;6.75;62.45
17764;BME280;22245;52.832;13.816;2023-01-16T01:48:39;99784.78;;;6.75;62.66
17764;BME280;22245;52.832;13.816;2023-01-16T01:52:03;99787.59;;;6.74;62.67
17764;BME280;22245;52.832;13.816;2023-01-16T01:55:26;99785.75;;;6.74;62.54
17764;BME280;22245;52.832;13.816;2023-01-16T01:58:51;99786.47;;;6.76;62.74
17764;BME280;22245;52.832;13.816;2023-01-16T02:02:19;99792.34;;;6.80;62.61
17764;BME280;22245;52.832;13.816;2023-01-16T02:05:46;99795.13;;;6.78;62.55
17764;BME280;22245;52.832;13.816;2023-01-16T02:09:09;99787.16;;;6.78;62.62
17764;BME280;22245;52.832;13.816;2023-01-16T02:12:31;99794.03;;;6.81;62.57
17764;BME280;22245;52.832;13.816;2023-01-16T02:15:58;99787.66;;;6.84;62.15
17764;BME280;22245;52.832;13.816;2023-01-16T02:19:42;99794.03;;;6.81;62.10
17764;BME280;22245;52.832;13.816;2023-01-16T02:23:24;99781.75;;;6.80;62.35
17764;BME280;22245;52.832;13.816;2023-01-16T02:27:12;99785.22;;;6.80;62.39
17764;BME280;22245;52.832;13.816;2023-01-16T02:31:01;99774.66;;;6.80;62.44
17764;BME280;22245;52.832;13.816;2023-01-16T02:34:46;99774.66;;;6.80;62.52
17764;BME280;22245;52.832;13.816;2023-01-16T02:38:14;99774.78;;;6.79;62.43
17764;BME280;22245;52.832;13.816;2023-01-16T02:41:47;99773.94;;;6.78;62.63
17764;BME280;22245;52.832;13.816;2023-01-16T02:45:17;99779.38;;;6.77;62.54
17764;BME280;22245;52.832;13.816;2023-01-16T02:48:48;99775.19;;;6.74;62.68
17764;BME280;22245;52.832;13.816;2023-01-16T02:52:13;99769.19;;;6.72;62.98
17764;BME280;22245;52.832;13.816;2023-01-16T02:55:40;99766.09;;;6.67;62.85
17764;BME280;22245;52.832;13.816;2023-01-16T02:59:03;99762.47;;;6.68;62.54
17764;BME280;22245;52.832;13.816;2023-01-16T03:02:25;99753.81;;;6.66;62.62
17764;BME280;22245;52.832;13.816;2023-01-16T03:05:50;99743.50;;;6.63;62.66
17764;BME280;22245;52.832;13.816;2023-01-16T03:09:31;99748.91;;;6.61;62.61
17764;BME280;22245;52.832;13.816;2023-01-16T03:13:06;99743.78;;;6.60;63.01
17764;BME280;22245;52.832;13.816;2023-01-16T03:16:37;99742.34;;;6.56;63.20
17764;BME280;22245;52.832;13.816;2023-01-16T03:20:12;99734.69;;;6.53;63.04
17764;BME280;22245;52.832;13.816;2023-01-16T03:23:42;99733.00;;;6.51;63.11
17764;BME280;22245;52.832;13.816;2023-01-16T03:27:16;99724.47;;;6.48;63.41
17764;BME280;22245;52.832;13.816;2023-01-16T03:30:48;99720.31;;;6.45;63.18
17764;BME280;22245;52.832;13.816;2023-01-16T03:34:17;99720.78;;;6.39;63.61
17764;BME280;22245;52.832;13.816;2023-01-16T03:37:45;99710.47;;;6.36;63.58
17764;BME280;22245;52.832;13.816;2023-01-16T03:41:10;99709.78;;;6.34;63.72
17764;BME280;22245;52.832;13.816;2023-01-16T03:44:37;99707.97;;;6.34;63.73
17764;BME280;22245;52.832;13.816;2023-01-16T03:48:04;99716.72;;;6.35;63.69
17764;BME280;22245;52.832;13.816;2023-01-16T03:51:32;99713.53;;;6.31;63.59
17764;BME280;22245;52.832;13.816;2023-01-16T03:55:01;99708.50;;;6.28;63.99
17764;BME280;22245;52.832;13.816;2023-01-16T03:58:31;99706.94;;;6.26;64.03
17764;BME280;22245;52.832;13.816;2023-01-16T04:01:58;99708.16;;;6.21;64.01
17764;BME280;22245;52.832;13.816;2023-01-16T04:05:26;99700.75;;;6.15;64.38
17764;BME280;22245;52.832;13.816;2023-01-16T04:08:49;99694.88;;;6.12;64.29
17764;BME280;22245;52.832;13.816;2023-01-16T04:12:13;99691.66;;;6.08;64.56
17764;BME280;22245;52.832;13.816;2023-01-16T04:15:44;99689.25;;;6.05;64.58
17764;BME280;22245;52.832;13.816;2023-01-16T04:19:07;99688.53;;;6.03;64.54
17764;BME280;22245;52.832;13.816;2023-01-16T04:22:32;99686.84;;;6.02;64.61
17764;BME280;22245;52.832;13.816;2023-01-16T04:25:54;99674.84;;;5.98;64.78
17764;BME280;22245;52.832;13.816;2023-01-16T04:29:16;99672.34;;;5.96;65.06
17764;BME280;22245;52.832;13.816;2023-01-16T04:32:39;99683.03;;;5.94;64.95
17764;BME280;22245;52.832;13.816;2023-01-16T04:36:01;99672.59;;;5.93;65.11
17764;BME280;22245;52.832;13.816;2023-01-16T04:39:22;99662.28;;;5.90;65.27
17764;BME280;22245;52.832;13.816;2023-01-16T04:42:44;99658.94;;;5.88;65.44
17764;BME280;22245;52.832;13.816;2023-01-16T04:46:06;99651.94;;;5.87;65.69
17764;BME280;22245;52.832;13.816;2023-01-16T04:49:29;99652.78;;;5.87;65.92
17764;BME280;22245;52.832;13.816;2023-01-16T04:52:51;99649.19;;;5.88;65.73
17764;BME280;22245;52.832;13.816;2023-01-16T04:56:13;99648.38;;;5.88;65.72
17764;BME280;22245;52.832;13.816;2023-01-16T04:59:35;99634.19;;;5.89;65.69
17764;BME280;22245;52.832;13.816;2023-01-16T05:02:56;99636.22;;;5.85;65.99
17764;BME280;22245;52.832;13.816;2023-01-16T05:06:20;99636.94;;;5.87;66.00
17764;BME280;22245;52.832;13.816;2023-01-16T05:09:41;99630.81;;;5.87;65.95
17764;BME280;22245;52.832;13.816;2023-01-16T05:13:03;99636.81;;;5.89;66.02
17764;BME280;22245;52.832;13.816;2023-01-16T05:16:25;99635.25;;;5.86;65.85
17764;BME280;22245;52.832;13.816;2023-01-16T05:19:46;99629.38;;;5.83;65.90
17764;BME280;22245;52.832;13.816;2023-01-16T05:23:09;99640.22;;;5.79;66.09
17764;BME280;22245;52.832;13.816;2023-01-16T05:26:31;99623.78;;;5.76;66.12
17764;BME280;22245;52.832;13.816;2023-01-16T05:29:53;99619.47;;;5.75;66.20
17764;BME280;22245;52.832;13.816;2023-01-16T05:33:15;99613.22;;;5.76;66.09
17764;BME280;22245;52.832;13.816;2023-01-16T05:36:37;99609.16;;;5.72;66.34
17764;BME280;22245;52.832;13.816;2023-01-16T05:40:00;99608.47;;;5.70;66.54
17764;BME280;22245;52.832;13.816;2023-01-16T05:43:22;99607.72;;;5.68;66.75
17764;BME280;22245;52.832;13.816;2023-01-16T05:46:44;99610.63;;;5.64;66.46
17764;BME280;22245;52.832;13.816;2023-01-16T05:50:06;99607.25;;;5.62;66.48
17764;BME280;22245;52.832;13.816;2023-01-16T05:53:29;99603.09;;;5.60;66.77
17764;BME280;22245;52.832;13.816;2023-01-16T05:56:52;99610.31;;;5.58;66.76
17764;BME280;22245;52.832;13.816;2023-01-16T06:00:14;99599.84;;;5.56;66.77
17764;BME280;22245;52.832;13.816;2023-01-16T06:03:35;99596.38;;;5.56;66.94
17764;BME280;22245;52.832;13.816;2023-01-16T06:06:57;99596.50;;;5.54;66.87
17764;BME280;22245;52.832;13.816;2023-01-16T06:10:18;99599.16;;;5.54;66.97
17764;BME280;22245;52.832;13.816;2023-01-16T06:13:41;99597.63;;;5.52;66.98
17764;BME280;22245;52.832;13.816;2023-01-16T06:17:03;99596.06;;;5.49;67.00
17764;BME280;22245;52.832;13.816;2023-01-16T06:20:25;99598.69;;;5.49;67.16
17764;BME280;22245;52.832;13.816;2023-01-16T06:23:47;99596.16;;;5.47;67.00
17764;BME280;22245;52.832;13.816;2023-01-16T06:27:09;99603.50;;;5.44;67.01
17764;BME280;22245;52.832;13.816;2023-01-16T06:30:32;99599.19;;;5.43;67.42
17764;BME280;22245;52.832;13.816;2023-01-16T06:33:53;99588.63;;;5.43;67.22
17764;BME280;22245;52.832;13.816;2023-01-16T06:37:15;99570.16;;;5.43;67.33
17764;BME280;22245;52.832;13.816;2023-01-16T06:40:36;99573.50;;;5.45;67.51
17764;BME280;22245;52.832;13.816;2023-01-16T06:43:58;99565.22;;;5.49;69.03
17764;BME280;22245;52.832;13.816;2023-01-16T06:47:21;99571.19;;;5.52;67.63
17764;BME280;22245;52.832;13.816;2023-01-16T06:50:43;99574.94;;;5.49;66.94
17764;BME280;22245;52.832;13.816;2023-01-16T06:54:05;99566.16;;;5.48;67.06
17764;BME280;22245;52.832;13.816;2023-01-16T06:57:27;99569.91;;;5.46;66.92
17764;BME280;22245;52.832;13.816;2023-01-16T07:00:49;99560.56;;;5.42;67.04
17764;BME280;22245;52.832;13.816;2023-01-16T07:04:12;99567.63;;;5.41;66.65
17764;BME280;22245;52.832;13.816;2023-01-16T07:07:35;99564.88;;;5.43;66.38
17764;BME280;22245;52.832;13.816;2023-01-16T07:10:58;99565.84;;;5.42;66.76
17764;BME280;22245;52.832;13.816;2023-01-16T07:14:20;99558.75;;;5.42;66.29
17764;BME280;22245;52.832;13.816;2023-01-16T07:17:59;99566.66;;;5.42;66.51
17764;BME280;22245;52.832;13.816;2023-01-16T07:21:42;99555.13;;;5.43;66.25
17764;BME280;22245;52.832;13.816;2023-01-16T07:25:30;99567.63;;;5.41;66.25
17764;BME280;22245;52.832;13.816;2023-01-16T07:28:54;99565.94;;;5.40;66.21
17764;BME280;22245;52.832;13.816;2023-01-16T07:32:16;99559.97;;;5.38;66.16
17764;BME280;22245;52.832;13.816;2023-01-16T07:35:38;99561.88;;;5.36;66.64
17764;BME280;22245;52.832;13.816;2023-01-16T07:39:02;99555.91;;;5.34;66.47
17764;BME280;22245;52.832;13.816;2023-01-16T07:42:23;99556.75;;;5.34;66.35
17764;BME280;22245;52.832;13.816;2023-01-16T07:45:45;99554.75;;;5.27;66.64
17764;BME280;22245;52.832;13.816;2023-01-16T07:49:12;99555.44;;;5.29;66.45
17764;BME280;22245;52.832;13.816;2023-01-16T07:52:34;99549.19;;;5.30;66.83
17764;BME280;22245;52.832;13.816;2023-01-16T07:55:58;99544.78;;;5.30;66.79
17764;BME280;22245;52.832;13.816;2023-01-16T07:59:20;99541.16;;;5.31;66.60
17764;BME280;22245;52.832;13.816;2023-01-16T08:02:42;99527.22;;;5.29;66.50
17764;BME280;22245;52.832;13.816;2023-01-16T08:06:04;99527.13;;;5.31;66.39
17764;BME280;22245;52.832;13.816;2023-01-16T08:09:26;99529.66;;;5.32;66.19
17764;BME280;22245;52.832;13.816;2023-01-16T08:12:50;99532.03;;;5.35;66.10
17764;BME280;22245;52.832;13.816;2023-01-16T08:16:11;99530.34;;;5.34;66.04
17764;BME280;22245;52.832;13.816;2023-01-16T08:19:33;99533.69;;;5.36;65.94
17764;BME280;22245;52.832;13.816;2023-01-16T08:22:55;99521.47;;;5.35;66.05
17764;BME280;22245;52.832;13.816;2023-01-16T08:26:18;99517.84;;;5.36;66.00
17764;BME280;22245;52.832;13.816;2023-01-16T08:29:41;99507.16;;;5.38;66.10
17764;BME280;22245;52.832;13.816;2023-01-16T08:33:03;99508.00;;;5.39;66.33
17764;BME280;22245;52.832;13.816;2023-01-16T08:36:25;99507.16;;;5.38;66.09
17764;BME280;22245;52.832;13.816;2023-01-16T08:39:47;99493.94;;;5.38;65.91
17764;BME280;22245;52.832;13.816;2023-01-16T08:43:09;99478.09;;;5.38;66.47
17764;BME280;22245;52.832;13.816;2023-01-16T08:46:54;99472.13;;;5.36;65.65
17764;BME280;22245;52.832;13.816;2023-01-16T08:50:34;99464.19;;;5.36;66.03
17764;BME280;22245;52.832;13.816;2023-01-16T08:54:13;99457.84;;;5.39;65.60
17764;BME280;22245;52.832;13.816;2023-01-16T08:57:35;99455.91;;;5.41;65.87
17764;BME280;22245;52.832;13.816;2023-01-16T09:00:56;99457.56;;;5.42;65.46
17764;BME280;22245;52.832;13.816;2023-01-16T09:04:22;99444.38;;;5.42;65.36
17764;BME280;22245;52.832;13.816;2023-01-16T09:07:43;99440.63;;;5.44;65.16
17764;BME280;22245;52.832;13.816;2023-01-16T09:11:05;99434.97;;;5.49;65.06
17764;BME280;22245;52.832;13.816;2023-01-16T09:14:45;99432.22;;;5.50;64.51
17764;BME280;22245;52.832;13.816;2023-01-16T09:18:07;99424.03;;;5.54;64.58
17764;BME280;22245;52.832;13.816;2023-01-16T09:21:30;99418.59;;;5.55;64.36
17764;BME280;22245;52.832;13.816;2023-01-16T09:24:51;99416.66;;;5.57;64.23
17764;BME280;22245;52.832;13.816;2023-01-16T09:28:13;99405.81;;;5.60;64.18
17764;BME280;22245;52.832;13.816;2023-01-16T09:31:35;99395.13;;;5.62;63.90
17764;BME280;22245;52.832;13.816;2023-01-16T09:34:57;99386.78;;;5.67;63.88
17764;BME280;22245;52.832;13.816;2023-01-16T09:38:20;99382.94;;;5.71;63.43
17764;BME280;22245;52.832;13.816;2023-01-16T09:41:49;99376.81;;;5.70;63.47
17764;BME280;22245;52.832;13.816;2023-01-16T09:45:33;99368.78;;;5.72;63.32
17764;BME280;22245;52.832;13.816;2023-01-16T09:48:59;99365.72;;;5.76;63.21
17764;BME280;22245;52.832;13.816;2023-01-16T09:52:24;99355.72;;;5.80;63.31
17764;BME280;22245;52.832;13.816;2023-01-16T09:56:09;99339.59;;;5.83;63.13
17764;BME280;22245;52.832;13.816;2023-01-16T09:59:50;99350.88;;;5.85;62.75
17764;BME280;22245;52.832;13.816;2023-01-16T10:03:14;99334.72;;;5.88;62.81
17764;BME280;22245;52.832;13.816;2023-01-16T10:06:41;99328.19;;;5.92;63.05
17764;BME280;22245;52.832;13.816;2023-01-16T10:10:19;99319.19;;;5.95;62.62
17764;BME280;22245;52.832;13.816;2023-01-16T10:14:01;99315.28;;;5.99;62.62
17764;BME280;22245;52.832;13.816;2023-01-16T10:17:33;99293.75;;;6.04;62.53
17764;BME280;22245;52.832;13.816;2023-01-16T10:21:13;99295.28;;;6.06;62.40
17764;BME280;22245;52.832;13.816;2023-01-16T10:24:52;99287.09;;;6.10;62.32
17764;BME280;22245;52.832;13.816;2023-01-16T10:28:28;99298.94;;;6.15;62.17
17764;BME280;22245;52.832;13.816;2023-01-16T10:31:58;99285.72;;;6.15;62.45
17764;BME280;22245;52.832;13.816;2023-01-16T10:35:26;99296.00;;;6.18;62.09
17764;BME280;22245;52.832;13.816;2023-01-16T10:38:52;99279.28;;;6.18;61.72
17764;BME280;22245;52.832;13.816;2023-01-16T10:42:19;99276.94;;;6.25;61.78
17764;BME280;22245;52.832;13.816;2023-01-16T10:46:11;99261.34;;;6.31;61.52
17764;BME280;22245;52.832;13.816;2023-01-16T10:50:12;99245.34;;;6.33;61.57
17764;BME280;22245;52.832;13.816;2023-01-16T10:53:37;99244.06;;;6.37;61.42
17764;BME280;22245;52.832;13.816;2023-01-16T10:56:59;99234.88;;;6.41;61.28
17764;BME280;22245;52.832;13.816;2023-01-16T11:00:27;99223.06;;;6.45;61.22
17764;BME280;22245;52.832;13.816;2023-01-16T11:03:53;99215.66;;;6.49;61.17
17764;BME280;22245;52.832;13.816;2023-01-16T11:07:19;99208.28;;;6.53;60.93
17764;BME280;22245;52.832;13.816;2023-01-16T11:10:43;99199.22;;;6.55;60.73
17764;BME280;22245;52.832;13.816;2023-01-16T11:14:11;99191.84;;;6.59;60.55
17764;BME280;22245;52.832;13.816;2023-01-16T11:17:52;99180.00;;;6.63;59.89
17764;BME280;22245;52.832;13.816;2023-01-16T11:21:32;99177.91;;;6.66;60.42
17764;BME280;22245;52.832;13.816;2023-01-16T11:24:56;99164.41;;;6.70;60.26
17764;BME280;22245;52.832;13.816;2023-01-16T11:28:21;99163.94;;;6.74;59.48
17764;BME280;22245;52.832;13.816;2023-01-16T11:31:47;99160.88;;;6.79;59.67
17764;BME280;22245;52.832;13.816;2023-01-16T11:35:12;99151.78;;;6.81;59.53
17764;BME280;22245;52.832;13.816;2023-01-16T11:38:35;99133.00;;;6.85;59.28
17764;BME280;22245;52.832;13.816;2023-01-16T11:42:03;99126.44;;;6.89;59.51
17764;BME280;22245;52.832;13.816;2023-01-16T11:45:55;99119.00;;;6.92;58.85
17764;BME280;22245;52.832;13.816;2023-01-16T11:49:24;99108.13;;;6.95;58.84
17764;BME280;22245;52.832;13.816;2023-01-16T11:52:47;99104.19;;;7.00;58.62
17764;BME280;22245;52.832;13.816;2023-01-16T11:56:34;99098.63;;;7.03;58.61
17764;BME280;22245;52.832;13.816;2023-01-16T12:00:19;99093.84;;;7.06;58.57
17764;BME280;22245;52.832;13.816;2023-01-16T12:04:05;99081.31;;;7.08;58.39
17764;BME280;22245;52.832;13.816;2023-01-16T12:07:38;99079.34;;;7.10;58.36
17764;BME280;22245;52.832;13.816;2023-01-16T12:11:04;99064.81;;;7.15;58.27
17764;BME280;22245;52.832;13.816;2023-01-16T12:14:30;99052.41;;;7.15;57.76
17764;BME280;22245;52.832;13.816;2023-01-16T12:18:05;99050.28;;;7.19;57.22
17764;BME280;22245;52.832;13.816;2023-01-16T12:21:35;99036.78;;;7.22;57.33
17764;BME280;22245;52.832;13.816;2023-01-16T12:25:04;99039.94;;;7.26;57.03
17764;BME280;22245;52.832;13.816;2023-01-16T12:28:35;99039.50;;;7.30;57.60
17764;BME280;22245;52.832;13.816;2023-01-16T12:32:29;99031.25;;;7.33;57.31
17764;BME280;22245;52.832;13.816;2023-01-16T12:35:58;99022.00;;;7.37;57.62
17764;BME280;22245;52.832;13.816;2023-01-16T12:39:25;99021.69;;;7.41;56.81
17764;BME280;22245;52.832;13.816;2023-01-16T12:42:58;99014.41;;;7.43;57.13
17764;BME280;22245;52.832;13.816;2023-01-16T12:46:50;99003.38;;;7.47;56.52
17764;BME280;22245;52.832;13.816;2023-01-16T12:50:23;98997.09;;;7.48;56.57
17764;BME280;22245;52.832;13.816;2023-01-16T12:54:19;98989.81;;;7.50;56.96
17764;BME280;22245;52.832;13.816;2023-01-16T12:57:59;98978.91;;;7.53;56.15
17764;BME280;22245;52.832;13.816;2023-01-16T13:01:25;98970.78;;;7.55;56.10
17764;BME280;22245;52.832;13.816;2023-01-16T13:04:52;98970.66;;;7.57;56.38
17764;BME280;22245;52.832;13.816;2023-01-16T13:08:18;98956.28;;;7.59;56.26
17764;BME280;22245;52.832;13.816;2023-01-16T13:11:50;98942.03;;;7.60;56.57
17764;BME280;22245;52.832;13.816;2023-01-16T13:15:35;98937.41;;;7.62;56.47
17764;BME280;22245;52.832;13.816;2023-01-16T13:19:01;98923.19;;;7.63;56.16
17764;BME280;22245;52.832;13.816;2023-01-16T13:22:27;98930.16;;;7.64;55.36
17764;BME280;22245;52.832;13.816;2023-01-16T13:25:54;98921.22;;;7.65;55.77
17764;BME280;22245;52.832;13.816;2023-01-16T13:29:25;98912.94;;;7.68;55.85
17764;BME280;22245;52.832;13.816;2023-01-16T13:32:52;98898.03;;;7.67;55.55
17764;BME280;22245;52.832;13.816;2023-01-16T13:36:32;98892.72;;;7.67;55.42
17764;BME280;22245;52.832;13.816;2023-01-16T13:40:11;98890.91;;;7.68;55.18
17764;BME280;22245;52.832;13.816;2023-01-16T13:43:40;98873.03;;;7.70;55.46
17764;BME280;22245;52.832;13.816;2023-01-16T13:47:26;98875.53;;;7.72;54.92
17764;BME280;22245;52.832;13.816;2023-01-16T13:50:52;98868.38;;;7.72;55.48
17764;BME280;22245;52.832;13.816;2023-01-16T13:54:21;98861.59;;;7.70;55.44
17764;BME280;22245;52.832;13.816;2023-01-16T13:57:46;98858.97;;;7.70;55.51
17764;BME280;22245;52.832;13.816;2023-01-16T14:01:30;98858.97;;;7.70;55.99
17764;BME280;22245;52.832;13.816;2023-01-16T14:05:19;98848.50;;;7.68;55.93
17764;BME280;22245;52.832;13.816;2023-01-16T14:08:51;98841.72;;;7.65;55.69
17764;BME280;22245;52.832;13.816;2023-01-16T14:12:32;98843.53;;;7.65;55.79
17764;BME280;22245;52.832;13.816;2023-01-16T14:15:56;98841.88;;;7.64;56.10
17764;BME280;22245;52.832;13.816;2023-01-16T14:19:40;98831.75;;;7.59;56.30
17764;BME280;22245;52.832;13.816;2023-01-16T14:23:04;98813.50;;;7.56;56.30
17764;BME280;22245;52.832;13.816;2023-01-16T14:26:45;98812.34;;;7.50;56.60
17764;BME280;22245;52.832;13.816;2023-01-16T14:30:16;98813.16;;;7.51;57.10
17764;BME280;22245;52.832;13.816;2023-01-16T14:33:43;98802.75;;;7.49;56.17
17764;BME280;22245;52.832;13.816;2023-01-16T14:37:13;98791.47;;;7.47;56.56
17764;BME280;22245;52.832;13.816;2023-01-16T14:40:38;98792.63;;;7.45;56.27
17764;BME280;22245;52.832;13.816;2023-01-16T14:44:20;98785.97;;;7.41;56.63
17764;BME280;22245;52.832;13.816;2023-01-16T14:48:05;98778.34;;;7.37;57.05
17764;BME280;22245;52.832;13.816;2023-01-16T14:51:55;98773.53;;;7.33;56.51
17764;BME280;22245;52.832;13.816;2023-01-16T14:55:46;98780.78;;;7.31;56.92
17764;BME280;22245;52.832;13.816;2023-01-16T14:59:14;98778.31;;;7.29;57.22
17764;BME280;22245;52.832;13.816;2023-01-16T15:02:41;98773.50;;;7.24;57.65
17764;BME280;22245;52.832;13.816;2023-01-16T15:06:08;98770.34;;;7.21;57.60
17764;BME280;22245;52.832;13.816;2023-01-16T15:09:31;98764.34;;;7.19;58.00
17764;BME280;22245;52.832;13.816;2023-01-16T15:13:12;98747.31;;;7.13;58.01
17764;BME280;22245;52.832;13.816;2023-01-16T15:16:36;98752.75;;;7.12;58.47
17764;BME280;22245;52.832;13.816;2023-01-16T15:20:25;98746.94;;;7.08;58.60
17764;BME280;22245;52.832;13.816;2023-01-16T15:24:05;98731.38;;;7.05;58.68
17764;BME280;22245;52.832;13.816;2023-01-16T15:27:32;98732.50;;;7.02;59.23
17764;BME280;22245;52.832;13.816;2023-01-16T15:31:00;98740.78;;;6.99;59.43
17764;BME280;22245;52.832;13.816;2023-01-16T15:34:26;98728.84;;;6.95;59.14
17764;BME280;22245;52.832;13.816;2023-01-16T15:37:49;98728.19;;;6.93;59.37
17764;BME280;22245;52.832;13.816;2023-01-16T15:41:13;98734.59;;;6.90;59.27
17764;BME280;22245;52.832;13.816;2023-01-16T15:44:37;98745.19;;;6.90;59.33
17764;BME280;22245;52.832;13.816;2023-01-16T15:48:27;98730.47;;;6.88;59.16
17764;BME280;22245;52.832;13.816;2023-01-16T15:51:56;98720.03;;;6.86;58.84
17764;BME280;22245;52.832;13.816;2023-01-16T15:55:21;98723.00;;;6.83;58.67
17764;BME280;22245;52.832;13.816;2023-01-16T15:58:43;98722.00;;;6.84;58.92
17764;BME280;22245;52.832;13.816;2023-01-16T16:02:17;98715.19;;;6.81;58.93
17764;BME280;22245;52.832;13.816;2023-01-16T16:05:42;98708.25;;;6.80;60.44
17764;BME280;22245;52.832;13.816;2023-01-16T16:09:05;98699.03;;;6.85;60.25
17764;BME280;22245;52.832;13.816;2023-01-16T16:12:27;98692.09;;;6.84;59.53
17764;BME280;22245;52.832;13.816;2023-01-16T16:15:58;98686.94;;;6.82;58.45
17764;BME280;22245;52.832;13.816;2023-01-16T16:19:37;98681.78;;;6.80;58.55
17764;BME280;22245;52.832;13.816;2023-01-16T16:23:09;98685.75;;;6.76;58.13
17764;BME280;22245;52.832;13.816;2023-01-16T16:26:37;98683.25;;;6.75;58.25
17764;BME280;22245;52.832;13.816;2023-01-16T16:30:02;98671.16;;;6.72;58.37
17764;BME280;22245;52.832;13.816;2023-01-16T16:33:26;98672.31;;;6.70;58.61
17764;BME280;22245;52.832;13.816;2023-01-16T16:36:51;98668.03;;;6.69;58.59
17764;BME280;22245;52.832;13.816;2023-01-16T16:40:18;98663.06;;;6.65;58.61
17764;BME280;22245;52.832;13.816;2023-01-16T16:43:45;98654.44;;;6.63;58.56
17764;BME280;22245;52.832;13.816;2023-01-16T16:47:14;98651.09;;;6.61;58.45
17764;BME280;22245;52.832;13.816;2023-01-16T16:50:38;98653.91;;;6.60;58.05
17764;BME280;22245;52.832;13.816;2023-01-16T16:54:04;98650.59;;;6.58;58.20
17764;BME280;22245;52.832;13.816;2023-01-16T16:57:39;98646.63;;;6.54;58.31
17764;BME280;22245;52.832;13.816;2023-01-16T17:01:02;98642.47;;;6.51;58.08
17764;BME280;22245;52.832;13.816;2023-01-16T17:04:24;98640.00;;;6.49;58.23
17764;BME280;22245;52.832;13.816;2023-01-16T17:07:46;98630.22;;;6.50;58.21
17764;BME280;22245;52.832;13.816;2023-01-16T17:11:10;98636.34;;;6.50;57.86
17764;BME280;22245;52.832;13.816;2023-01-16T17:14:33;98635.38;;;6.51;57.83
17764;BME280;22245;52.832;13.816;2023-01-16T17:17:55;98627.44;;;6.51;57.84
17764;BME280;22245;52.832;13.816;2023-01-16T17:21:18;98615.34;;;6.49;57.88
17764;BME280;22245;52.832;13.816;2023-01-16T17:24:40;98621.47;;;6.49;57.94
17764;BME280;22245;52.832;13.816;2023-01-16T17:28:02;98615.34;;;6.49;57.82
17764;BME280;22245;52.832;13.816;2023-01-16T17:31:25;98612.56;;;6.50;57.53
17764;BME280;22245;52.832;13.816;2023-01-16T17:34:47;98613.53;;;6.49;57.39
17764;BME280;22245;52.832;13.816;2023-01-16T17:38:10;98603.94;;;6.48;57.47
17764;BME280;22245;52.832;13.816;2023-01-16T17:41:35;98595.34;;;6.46;57.48
17764;BME280;22245;52.832;13.816;2023-01-16T17:45:25;98589.22;;;6.46;57.48
17764;BME280;22245;52.832;13.816;2023-01-16T17:49:06;98584.09;;;6.44;56.92
17764;BME280;22245;52.832;13.816;2023-01-16T17:52:27;98584.25;;;6.43;56.71
17764;BME280;22245;52.832;13.816;2023-01-16T17:55:52;98580.75;;;6.42;56.88
17764;BME280;22245;52.832;13.816;2023-01-16T17:59:15;98574.81;;;6.40;56.70
17764;BME280;22245;52.832;13.816;2023-01-16T18:02:37;98579.09;;;6.41;56.49
17764;BME280;22245;52.832;13.816;2023-01-16T18:06:02;98568.84;;;6.38;56.62
17764;BME280;22245;52.832;13.816;2023-01-16T18:09:24;98574.31;;;6.36;56.53
17764;BME280;22245;52.832;13.816;2023-01-16T18:12:46;98575.97;;;6.37;56.45
17764;BME280;22245;52.832;13.816;2023-01-16T18:16:25;98567.19;;;6.37;56.92
17764;BME280;22245;52.832;13.816;2023-01-16T18:20:05;98562.56;;;6.39;56.60